createdAt,value
2017-01-07T00:00:12.127Z,95.45
2017-01-07T00:01:11.680Z,95.36
2017-01-07T00:02:11.624Z,95.36
2017-01-07T00:03:11.266Z,95.07
2017-01-07T00:04:11.897Z,95.5
2017-01-07T00:05:11.875Z,96.06
2017-01-07T00:06:11.830Z,96.16
2017-01-07T00:07:11.810Z,96.35
2017-01-07T00:08:11.766Z,96.87
2017-01-07T00:09:11.748Z,96.68
2017-01-07T00:10:11.746Z,96.21
2017-01-07T00:11:11.358Z,95.83
2017-01-07T00:12:11.656Z,96.02
2017-01-07T00:13:11.299Z,95.45
2017-01-07T00:14:11.262Z,95.36
2017-01-07T00:15:10.911Z,95.54
2017-01-07T00:16:11.397Z,95.97
2017-01-07T00:17:10.862Z,96.16
2017-01-07T00:18:11.468Z,95.87
2017-01-07T00:19:11.314Z,95.83
2017-01-07T00:20:11.412Z,96.21
2017-01-07T00:21:11.391Z,96.44
2017-01-07T00:22:11.353Z,96.82
2017-01-07T00:23:10.681Z,96.54
2017-01-07T00:24:10.547Z,96.16
2017-01-07T00:25:10.940Z,95.97
2017-01-07T00:26:10.582Z,96.16
2017-01-07T00:27:11.233Z,96.25
2017-01-07T00:28:10.534Z,96.44
2017-01-07T00:29:10.504Z,95.97
2017-01-07T00:30:11.119Z,96.16
2017-01-07T00:31:10.750Z,95.64
2017-01-07T00:32:11.081Z,96.11
2017-01-07T00:33:11.016Z,96.02
2017-01-07T00:34:10.265Z,96.4
2017-01-07T00:35:10.953Z,95.87
2017-01-07T00:36:10.940Z,96.25
2017-01-07T00:37:10.905Z,96.4
2017-01-07T00:38:10.136Z,96.11
2017-01-07T00:39:10.203Z,96.21
2017-01-07T00:40:10.804Z,96.21
2017-01-07T00:41:10.793Z,95.73
2017-01-07T00:42:10.740Z,95.73
2017-01-07T00:43:10.444Z,95.87
2017-01-07T00:44:10.040Z,95.59
2017-01-07T00:45:10.341Z,96.3
2017-01-07T00:46:10.621Z,95.64
2017-01-07T00:47:10.624Z,95.83
2017-01-07T00:48:10.586Z,95.73
2017-01-07T00:49:09.899Z,95.73
2017-01-07T00:50:09.866Z,95.54
2017-01-07T00:51:10.150Z,96.82
2017-01-07T00:52:09.804Z,97.29
2017-01-07T00:53:10.433Z,98.14
2017-01-07T00:54:10.395Z,98.52
2017-01-07T00:55:10.025Z,98.33
2017-01-07T00:56:10.330Z,97.77
2017-01-07T00:57:09.974Z,97.39
2017-01-07T00:58:10.285Z,96.68
2017-01-07T00:59:10.086Z,96.68
2017-01-07T01:00:10.209Z,96.11
2017-01-07T01:01:09.529Z,96.21
2017-01-07T01:02:09.497Z,96.11
2017-01-07T01:03:10.124Z,96.11
2017-01-07T01:04:09.757Z,96.4
2017-01-07T01:05:09.461Z,96.49
2017-01-07T01:06:09.298Z,96.44
2017-01-07T01:07:09.676Z,96.44
2017-01-07T01:08:09.993Z,96.59
2017-01-07T01:09:09.609Z,96.63
2017-01-07T01:10:09.247Z,96.54
2017-01-07T01:11:09.551Z,96.54
2017-01-07T01:12:09.862Z,96.11
2017-01-07T01:13:09.167Z,96.21
2017-01-07T01:14:09.141Z,95.92
2017-01-07T01:15:09.428Z,95.83
2017-01-07T01:16:09.077Z,95.45
2017-01-07T01:17:09.048Z,95.26
2017-01-07T01:18:09.026Z,94.79
2017-01-07T01:19:09.307Z,95.4
2017-01-07T01:20:09.277Z,95.78
2017-01-07T01:21:09.459Z,95.54
2017-01-07T01:22:09.565Z,94.98
2017-01-07T01:23:09.531Z,95.54
2017-01-07T01:24:08.835Z,95.07
2017-01-07T01:25:09.467Z,94.79
2017-01-07T01:26:09.443Z,95.07
2017-01-07T01:27:09.412Z,94.79
2017-01-07T01:28:09.391Z,94.79
2017-01-07T01:29:09.347Z,94.98
2017-01-07T01:30:09.296Z,94.7
2017-01-07T01:31:08.548Z,94.51
2017-01-07T01:32:09.248Z,94.7
2017-01-07T01:33:09.217Z,94.89
2017-01-07T01:34:08.868Z,95.26
2017-01-07T01:35:08.524Z,95.54
2017-01-07T01:36:09.156Z,95.54
2017-01-07T01:37:09.108Z,94.98
2017-01-07T01:38:08.429Z,95.78
2017-01-07T01:39:09.038Z,95.78
2017-01-07T01:40:08.351Z,95.87
2017-01-07T01:41:08.832Z,95.5
2017-01-07T01:42:08.214Z,95.36
2017-01-07T01:43:08.931Z,94.79
2017-01-07T01:44:08.877Z,94.6
2017-01-07T01:45:08.531Z,94.41
2017-01-07T01:46:08.839Z,94.7
2017-01-07T01:47:08.149Z,95.87
2017-01-07T01:48:08.436Z,95.5
2017-01-07T01:49:08.406Z,95.45
2017-01-07T01:50:08.053Z,95.45
2017-01-07T01:51:08.657Z,95.68
2017-01-07T01:52:08.313Z,95.45
2017-01-07T01:53:08.607Z,95.45
2017-01-07T01:54:08.574Z,95.54
2017-01-07T01:55:07.901Z,95.07
2017-01-07T01:56:08.192Z,94.79
2017-01-07T01:57:08.503Z,94.79
2017-01-07T01:58:08.485Z,94.51
2017-01-07T01:59:08.113Z,94.22
2017-01-07T02:00:07.770Z,93.94
2017-01-07T02:01:08.440Z,94.32
2017-01-07T02:02:07.605Z,94.41
2017-01-07T02:03:07.994Z,94.13
2017-01-07T02:04:08.299Z,94.03
2017-01-07T02:05:08.359Z,94.13
2017-01-07T02:06:07.898Z,93.84
2017-01-07T02:07:08.174Z,93.94
2017-01-07T02:08:07.521Z,94.03
2017-01-07T02:09:07.843Z,94.32
2017-01-07T02:10:08.097Z,93.47
2017-01-07T02:11:08.085Z,94.13
2017-01-07T02:12:07.313Z,94.79
2017-01-07T02:13:07.363Z,94.7
2017-01-07T02:14:07.251Z,94.98
2017-01-07T02:15:07.963Z,95.07
2017-01-07T02:16:07.797Z,95.26
2017-01-07T02:17:07.781Z,95.64
2017-01-07T02:18:07.211Z,95.45
2017-01-07T02:19:07.201Z,95.36
2017-01-07T02:20:07.805Z,94.6
2017-01-07T02:21:07.053Z,94.6
2017-01-07T02:22:07.418Z,94.41
2017-01-07T02:23:07.382Z,94.7
2017-01-07T02:24:07.686Z,94.79
2017-01-07T02:25:07.655Z,94.51
2017-01-07T02:26:06.992Z,94.32
2017-01-07T02:27:07.264Z,94.22
2017-01-07T02:28:06.924Z,94.13
2017-01-07T02:29:07.399Z,93.75
2017-01-07T02:30:07.520Z,94.41
2017-01-07T02:31:06.833Z,94.32
2017-01-07T02:32:06.790Z,94.41
2017-01-07T02:33:07.088Z,94.41
2017-01-07T02:34:07.387Z,94.51
2017-01-07T02:35:07.052Z,94.41
2017-01-07T02:36:07.325Z,94.22
2017-01-07T02:37:06.970Z,94.41
2017-01-07T02:38:06.937Z,94.79
2017-01-07T02:39:07.233Z,94.6
2017-01-07T02:40:07.242Z,94.6
2017-01-07T02:41:06.537Z,94.13
2017-01-07T02:42:07.251Z,94.32
2017-01-07T02:43:06.407Z,94.32
2017-01-07T02:44:07.127Z,94.13
2017-01-07T02:45:06.722Z,94.03
2017-01-07T02:46:06.908Z,94.13
2017-01-07T02:47:07.013Z,94.03
2017-01-07T02:48:06.980Z,94.32
2017-01-07T02:49:06.940Z,94.13
2017-01-07T02:50:06.933Z,94.41
2017-01-07T02:51:06.539Z,93.56
2017-01-07T02:52:06.722Z,93.47
2017-01-07T02:53:06.841Z,93.56
2017-01-07T02:54:06.151Z,93.66
2017-01-07T02:55:06.752Z,93.47
2017-01-07T02:56:05.998Z,93.56
2017-01-07T02:57:06.045Z,93.28
2017-01-07T02:58:06.344Z,93.28
2017-01-07T02:59:05.907Z,93.84
2017-01-07T03:00:06.286Z,94.32
2017-01-07T03:01:06.575Z,94.13
2017-01-07T03:02:06.411Z,94.13
2017-01-07T03:03:06.543Z,94.22
2017-01-07T03:04:05.852Z,94.22
2017-01-07T03:05:06.312Z,94.03
2017-01-07T03:06:05.803Z,94.22
2017-01-07T03:07:06.067Z,94.41
2017-01-07T03:08:05.696Z,94.03
2017-01-07T03:09:05.692Z,94.13
2017-01-07T03:10:05.992Z,94.13
2017-01-07T03:11:06.282Z,94.22
2017-01-07T03:12:06.251Z,94.13
2017-01-07T03:13:06.210Z,94.51
2017-01-07T03:14:06.229Z,94.13
2017-01-07T03:15:06.173Z,93.94
2017-01-07T03:16:05.795Z,94.41
2017-01-07T03:17:06.107Z,94.79
2017-01-07T03:18:06.078Z,94.89
2017-01-07T03:19:05.387Z,94.79
2017-01-07T03:20:06.021Z,94.41
2017-01-07T03:21:05.659Z,94.03
2017-01-07T03:22:05.931Z,94.41
2017-01-07T03:23:05.277Z,94.03
2017-01-07T03:24:05.238Z,94.03
2017-01-07T03:25:05.917Z,94.41
2017-01-07T03:26:05.103Z,94.32
2017-01-07T03:27:05.829Z,95.07
2017-01-07T03:28:05.045Z,94.79
2017-01-07T03:29:05.735Z,94.41
2017-01-07T03:30:05.728Z,94.22
2017-01-07T03:31:05.670Z,94.13
2017-01-07T03:32:04.927Z,94.41
2017-01-07T03:33:04.972Z,94.41
2017-01-07T03:34:05.599Z,93.84
2017-01-07T03:35:05.629Z,94.13
2017-01-07T03:36:05.202Z,94.41
2017-01-07T03:37:05.516Z,94.32
2017-01-07T03:38:04.744Z,94.22
2017-01-07T03:39:05.517Z,94.41
2017-01-07T03:40:04.758Z,94.51
2017-01-07T03:41:05.055Z,94.32
2017-01-07T03:42:05.356Z,93.94
2017-01-07T03:43:04.995Z,94.03
2017-01-07T03:44:05.153Z,94.32
2017-01-07T03:45:04.616Z,93.94
2017-01-07T03:46:05.239Z,94.7
2017-01-07T03:47:04.878Z,94.22
2017-01-07T03:48:04.519Z,94.32
2017-01-07T03:49:04.813Z,94.32
2017-01-07T03:50:05.131Z,94.6
2017-01-07T03:51:04.353Z,94.51
2017-01-07T03:52:05.061Z,94.89
2017-01-07T03:53:04.690Z,94.6
2017-01-07T03:54:05.007Z,94.79
2017-01-07T03:55:04.330Z,95.07
2017-01-07T03:56:04.289Z,94.51
2017-01-07T03:57:04.254Z,95.07
2017-01-07T03:58:04.542Z,95.07
2017-01-07T03:59:04.859Z,95.07
2017-01-07T04:00:04.817Z,94.89
2017-01-07T04:01:04.815Z,94.51
2017-01-07T04:02:04.113Z,94.22
2017-01-07T04:03:04.080Z,94.03
2017-01-07T04:04:04.709Z,94.32
2017-01-07T04:05:04.675Z,94.51
2017-01-07T04:06:04.643Z,95.07
2017-01-07T04:07:03.883Z,94.89
2017-01-07T04:08:03.933Z,94.98
2017-01-07T04:09:04.552Z,94.79
2017-01-07T04:10:04.537Z,94.98
2017-01-07T04:11:04.172Z,94.89
2017-01-07T04:12:04.461Z,95.17
2017-01-07T04:13:04.431Z,95.54
2017-01-07T04:14:04.066Z,95.26
2017-01-07T04:15:04.361Z,95.36
2017-01-07T04:16:04.330Z,95.45
2017-01-07T04:17:04.327Z,95.36
2017-01-07T04:18:03.630Z,95.26
2017-01-07T04:19:03.928Z,95.07
2017-01-07T04:20:03.495Z,95.54
2017-01-07T04:21:03.529Z,95.36
2017-01-07T04:22:03.514Z,95.83
2017-01-07T04:23:03.837Z,96.21
2017-01-07T04:24:04.096Z,96.21
2017-01-07T04:25:03.738Z,96.96
2017-01-07T04:26:03.395Z,97.34
2017-01-07T04:27:03.877Z,97.53
2017-01-07T04:28:03.829Z,97.25
2017-01-07T04:29:03.818Z,97.63
2017-01-07T04:30:03.194Z,97.81
2017-01-07T04:31:03.755Z,98.38
2017-01-07T04:32:03.885Z,98.38
2017-01-07T04:33:03.836Z,98.66
2017-01-07T04:34:03.473Z,99.52
2017-01-07T04:35:03.118Z,99.99
2017-01-07T04:36:03.118Z,99.99
2017-01-07T04:37:03.718Z,99.99
2017-01-07T04:38:03.697Z,99.99
2017-01-07T04:39:03.659Z,99.99
2017-01-07T04:40:03.631Z,99.99
2017-01-07T04:41:03.259Z,99.99
2017-01-07T04:42:03.229Z,99.99
2017-01-07T04:43:02.888Z,99.99
2017-01-07T04:44:02.856Z,99.99
2017-01-07T04:45:03.357Z,99.99
2017-01-07T04:46:02.794Z,99.99
2017-01-07T04:47:03.394Z,99.99
2017-01-07T04:48:03.045Z,99.99
2017-01-07T04:49:02.688Z,99.99
2017-01-07T04:50:03.314Z,99.99
2017-01-07T04:51:02.627Z,99.99
2017-01-07T04:52:03.271Z,99.99
2017-01-07T04:53:02.893Z,99.99
2017-01-07T04:54:02.561Z,99.99
2017-01-07T04:55:02.513Z,99.99
2017-01-07T04:56:02.796Z,99.99
2017-01-07T04:57:03.140Z,99.99
2017-01-07T04:58:03.086Z,99.99
2017-01-07T04:59:02.311Z,99.99
2017-01-07T05:00:03.011Z,99.99
2017-01-07T05:01:02.334Z,99.99
2017-01-07T05:02:02.968Z,99.99
2017-01-07T05:03:02.776Z,99.99
2017-01-07T05:04:02.567Z,99.99
2017-01-07T05:05:02.219Z,99.99
2017-01-07T05:06:02.097Z,99.99
2017-01-07T05:07:02.813Z,99.99
2017-01-07T05:08:02.785Z,99.99
2017-01-07T05:09:02.737Z,99.99
2017-01-07T05:10:02.385Z,99.99
2017-01-07T05:11:02.683Z,99.99
2017-01-07T05:12:02.674Z,99.99
2017-01-07T05:13:01.985Z,99.99
2017-01-07T05:14:02.587Z,99.99
2017-01-07T05:15:01.836Z,99.99
2017-01-07T05:16:02.196Z,99.99
2017-01-07T05:17:02.522Z,99.99
2017-01-07T05:18:01.817Z,99.99
2017-01-07T05:19:02.468Z,99.99
2017-01-07T05:20:02.419Z,99.99
2017-01-07T05:21:02.412Z,99.99
2017-01-07T05:22:02.012Z,99.99
2017-01-07T05:23:02.319Z,99.99
2017-01-07T05:24:02.286Z,99.99
2017-01-07T05:25:02.246Z,99.99
2017-01-07T05:26:02.250Z,99.99
2017-01-07T05:27:01.649Z,99.99
2017-01-07T05:28:02.178Z,99.99
2017-01-07T05:29:02.149Z,99.99
2017-01-07T05:30:02.104Z,99.99
2017-01-07T05:31:02.079Z,99.99
2017-01-07T05:32:02.079Z,99.99
2017-01-07T05:33:02.015Z,99.99
2017-01-07T05:34:02.002Z,99.99
2017-01-07T05:35:01.319Z,99.99
2017-01-07T05:36:01.272Z,99.99
2017-01-07T05:37:01.253Z,99.99
2017-01-07T05:38:01.883Z,99.99
2017-01-07T05:39:01.192Z,99.99
2017-01-07T05:40:01.791Z,99.99
2017-01-07T05:41:01.444Z,99.99
2017-01-07T05:42:01.420Z,99.99
2017-01-07T05:43:01.588Z,99.99
2017-01-07T05:44:01.718Z,99.99
2017-01-07T05:45:00.991Z,99.99
2017-01-07T05:46:01.295Z,99.99
2017-01-07T05:47:00.862Z,99.99
2017-01-07T05:48:00.905Z,99.99
2017-01-07T05:49:01.555Z,99.99
2017-01-07T05:50:00.844Z,99.99
2017-01-07T05:51:01.480Z,99.99
2017-01-07T05:52:00.817Z,99.99
2017-01-07T05:53:01.417Z,99.99
2017-01-07T05:54:01.382Z,99.99
2017-01-07T05:55:01.038Z,99.99
2017-01-07T05:56:00.670Z,99.99
2017-01-07T05:57:01.292Z,99.99
2017-01-07T05:58:01.282Z,99.99
2017-01-07T05:59:01.227Z,99.99
2017-01-07T06:00:00.462Z,99.99
2017-01-07T06:01:01.173Z,99.99
2017-01-07T06:02:01.145Z,99.99
2017-01-07T06:03:01.128Z,99.99
2017-01-07T06:04:01.087Z,99.99
2017-01-07T06:05:00.718Z,99.99
2017-01-07T06:06:01.029Z,99.99
2017-01-07T06:07:00.345Z,99.99
2017-01-07T06:08:00.946Z,99.99
2017-01-07T06:09:00.938Z,99.99
2017-01-07T06:10:00.894Z,99.99
2017-01-07T06:11:00.864Z,99.99
2017-01-07T06:12:00.818Z,99.99
2017-01-07T06:13:00.803Z,99.99
2017-01-07T06:14:00.443Z,99.99
2017-01-07T06:15:00.092Z,99.99
2017-01-07T06:16:00.063Z,99.99
2017-01-07T06:17:00.667Z,99.99
2017-01-07T06:18:00.316Z,99.99
2017-01-07T06:19:00.290Z,99.99
2017-01-07T06:20:00.589Z,99.99
2017-01-07T06:20:59.924Z,99.99
2017-01-07T06:22:00.199Z,99.99
2017-01-07T06:22:59.843Z,99.99
2017-01-07T06:24:00.487Z,99.99
2017-01-07T06:25:00.425Z,99.99
2017-01-07T06:25:59.751Z,99.99
2017-01-07T06:26:59.726Z,99.99
2017-01-07T06:28:00.340Z,99.99
2017-01-07T06:28:59.671Z,99.99
2017-01-07T06:30:00.282Z,99.99
2017-01-07T06:30:59.934Z,99.99
2017-01-07T06:32:00.217Z,99.99
2017-01-07T06:32:59.583Z,99.99
2017-01-07T06:34:00.182Z,99.99
2017-01-07T06:34:59.838Z,99.99
2017-01-07T06:35:59.365Z,99.99
2017-01-07T06:37:00.074Z,99.99
2017-01-07T06:38:00.041Z,99.99
2017-01-07T06:39:00.018Z,99.99
2017-01-07T06:39:59.644Z,99.99
2017-01-07T06:40:59.697Z,99.99
2017-01-07T06:41:59.918Z,99.99
2017-01-07T06:42:59.897Z,99.99
2017-01-07T06:43:59.855Z,99.99
2017-01-07T06:44:59.826Z,99.99
2017-01-07T06:45:59.515Z,99.99
2017-01-07T06:46:59.431Z,99.99
2017-01-07T06:47:59.402Z,99.99
2017-01-07T06:48:59.693Z,99.99
2017-01-07T06:49:59.672Z,99.99
2017-01-07T06:50:59.311Z,99.99
2017-01-07T06:51:59.611Z,99.99
2017-01-07T06:52:59.578Z,99.99
2017-01-07T06:53:59.554Z,99.99
2017-01-07T06:54:58.877Z,99.99
2017-01-07T06:55:59.487Z,99.99
2017-01-07T06:56:59.135Z,99.99
2017-01-07T06:57:58.782Z,99.99
2017-01-07T06:58:59.067Z,99.99
2017-01-07T06:59:58.725Z,99.99
2017-01-07T07:00:59.005Z,99.99
2017-01-07T07:01:59.305Z,99.99
2017-01-07T07:02:58.940Z,99.99
2017-01-07T07:03:59.324Z,99.99
2017-01-07T07:04:59.251Z,99.99
2017-01-07T07:05:59.200Z,99.99
2017-01-07T07:06:59.167Z,99.99
2017-01-07T07:07:59.137Z,99.99
2017-01-07T07:08:58.767Z,99.99
2017-01-07T07:09:58.328Z,99.99
2017-01-07T07:10:58.905Z,99.99
2017-01-07T07:11:59.030Z,99.99
2017-01-07T07:12:58.990Z,99.99
2017-01-07T07:13:58.308Z,99.99
2017-01-07T07:14:58.259Z,99.99
2017-01-07T07:15:58.900Z,99.99
2017-01-07T07:16:58.865Z,99.99
2017-01-07T07:17:58.833Z,99.99
2017-01-07T07:18:58.813Z,99.99
2017-01-07T07:19:58.812Z,99.99
2017-01-07T07:20:58.076Z,99.99
2017-01-07T07:21:58.742Z,99.99
2017-01-07T07:22:58.675Z,99.99
2017-01-07T07:23:58.694Z,99.99
2017-01-07T07:24:57.958Z,99.99
2017-01-07T07:25:58.674Z,99.99
2017-01-07T07:26:58.554Z,99.99
2017-01-07T07:27:57.784Z,99.99
2017-01-07T07:28:58.502Z,99.99
2017-01-07T07:29:58.481Z,99.99
2017-01-07T07:30:58.435Z,99.99
2017-01-07T07:31:58.408Z,99.99
2017-01-07T07:32:58.030Z,99.99
2017-01-07T07:33:57.695Z,99.99
2017-01-07T07:34:57.664Z,99.99
2017-01-07T07:35:57.944Z,99.99
2017-01-07T07:36:58.251Z,99.99
2017-01-07T07:37:58.224Z,99.99
2017-01-07T07:38:58.196Z,99.99
2017-01-07T07:39:58.153Z,99.99
2017-01-07T07:40:58.122Z,99.99
2017-01-07T07:41:58.089Z,99.99
2017-01-07T07:42:58.059Z,99.99
2017-01-07T07:43:58.048Z,99.99
2017-01-07T07:44:58.008Z,99.99
2017-01-07T07:45:57.654Z,99.99
2017-01-07T07:46:57.201Z,99.99
2017-01-07T07:47:57.907Z,99.99
2017-01-07T07:48:57.891Z,99.99
2017-01-07T07:49:57.528Z,99.99
2017-01-07T07:50:57.939Z,99.99
2017-01-07T07:51:57.795Z,99.99
2017-01-07T07:52:57.773Z,99.99
2017-01-07T07:53:56.997Z,99.99
2017-01-07T07:54:57.373Z,99.99
2017-01-07T07:55:57.686Z,99.99
2017-01-07T07:56:57.496Z,99.99
2017-01-07T07:57:57.478Z,99.99
2017-01-07T07:58:56.936Z,99.99
2017-01-07T07:59:57.567Z,99.99
2017-01-07T08:00:57.563Z,99.99
2017-01-07T08:01:57.375Z,99.99
2017-01-07T08:02:56.808Z,99.99
2017-01-07T08:03:56.693Z,99.99
2017-01-07T08:04:56.672Z,99.99
2017-01-07T08:05:56.722Z,99.99
2017-01-07T08:06:57.010Z,99.99
2017-01-07T08:07:57.314Z,99.99
2017-01-07T08:08:57.288Z,99.99
2017-01-07T08:09:57.256Z,99.99
2017-01-07T08:10:56.558Z,99.99
2017-01-07T08:11:57.193Z,99.99
2017-01-07T08:12:56.826Z,99.99
2017-01-07T08:13:57.133Z,99.99
2017-01-07T08:14:56.444Z,99.99
2017-01-07T08:15:57.058Z,99.99
2017-01-07T08:16:56.384Z,99.99
2017-01-07T08:17:56.343Z,99.99
2017-01-07T08:18:56.234Z,99.99
2017-01-07T08:19:56.602Z,99.99
2017-01-07T08:20:56.933Z,99.99
2017-01-07T08:21:56.875Z,99.99
2017-01-07T08:22:56.200Z,99.99
2017-01-07T08:23:56.670Z,99.99
2017-01-07T08:24:56.652Z,99.99
2017-01-07T08:25:56.609Z,99.99
2017-01-07T08:26:56.734Z,99.99
2017-01-07T08:27:56.701Z,99.99
2017-01-07T08:28:56.678Z,99.99
2017-01-07T08:29:55.987Z,99.99
2017-01-07T08:30:56.276Z,99.99
2017-01-07T08:31:56.585Z,99.99
2017-01-07T08:32:56.215Z,99.99
2017-01-07T08:33:56.512Z,99.99
2017-01-07T08:34:56.480Z,99.99
2017-01-07T08:35:55.802Z,99.99
2017-01-07T08:36:56.423Z,99.99
2017-01-07T08:37:56.061Z,99.99
2017-01-07T08:38:55.708Z,99.99
2017-01-07T08:39:56.330Z,99.99
2017-01-07T08:40:56.300Z,99.99
2017-01-07T08:41:55.996Z,99.99
2017-01-07T08:42:56.251Z,99.99
2017-01-07T08:43:56.250Z,99.99
2017-01-07T08:44:56.175Z,99.99
2017-01-07T08:45:55.556Z,99.99
2017-01-07T08:46:56.143Z,99.99
2017-01-07T08:47:55.449Z,99.99
2017-01-07T08:48:55.407Z,99.99
2017-01-07T08:49:55.390Z,99.99
2017-01-07T08:50:55.872Z,99.99
2017-01-07T08:51:55.975Z,99.99
2017-01-07T08:52:55.292Z,99.99
2017-01-07T08:53:55.584Z,99.99
2017-01-07T08:54:55.872Z,99.99
2017-01-07T08:55:55.842Z,99.99
2017-01-07T08:56:55.808Z,99.99
2017-01-07T08:57:55.528Z,99.99
2017-01-07T08:58:55.776Z,99.99
2017-01-07T08:59:55.111Z,99.99
2017-01-07T09:00:55.040Z,99.99
2017-01-07T09:01:55.334Z,99.99
2017-01-07T09:02:55.634Z,99.99
2017-01-07T09:03:55.601Z,99.99
2017-01-07T09:04:55.243Z,99.99
2017-01-07T09:05:55.406Z,99.99
2017-01-07T09:06:54.791Z,99.99
2017-01-07T09:07:55.495Z,99.99
2017-01-07T09:08:55.458Z,99.99
2017-01-07T09:09:55.118Z,99.99
2017-01-07T09:10:55.068Z,99.99
2017-01-07T09:11:55.387Z,99.99
2017-01-07T09:12:55.248Z,99.99
2017-01-07T09:13:55.311Z,99.99
2017-01-07T09:14:55.331Z,99.99
2017-01-07T09:15:55.255Z,99.99
2017-01-07T09:16:54.879Z,99.99
2017-01-07T09:17:55.184Z,99.99
2017-01-07T09:18:55.160Z,99.99
2017-01-07T09:19:55.132Z,99.99
2017-01-07T09:20:55.112Z,99.99
2017-01-07T09:21:54.735Z,99.99
2017-01-07T09:22:54.386Z,99.99
2017-01-07T09:23:54.358Z,99.99
2017-01-07T09:24:54.962Z,99.99
2017-01-07T09:25:54.292Z,99.99
2017-01-07T09:26:54.928Z,99.99
2017-01-07T09:27:54.894Z,99.99
2017-01-07T09:28:54.186Z,99.99
2017-01-07T09:29:54.834Z,99.99
2017-01-07T09:30:54.895Z,99.99
2017-01-07T09:31:54.760Z,99.99
2017-01-07T09:32:54.113Z,99.99
2017-01-07T09:33:53.978Z,99.99
2017-01-07T09:34:54.662Z,99.99
2017-01-07T09:35:54.321Z,99.99
2017-01-07T09:36:54.625Z,99.99
2017-01-07T09:37:54.260Z,99.99
2017-01-07T09:38:53.878Z,99.99
2017-01-07T09:39:54.189Z,99.99
2017-01-07T09:40:54.521Z,99.99
2017-01-07T09:41:54.463Z,99.99
2017-01-07T09:42:54.416Z,99.99
2017-01-07T09:43:54.423Z,99.99
2017-01-07T09:44:54.365Z,99.99
2017-01-07T09:45:54.335Z,99.99
2017-01-07T09:46:53.599Z,99.99
2017-01-07T09:47:54.303Z,99.99
2017-01-07T09:48:53.919Z,99.99
2017-01-07T09:49:54.233Z,99.99
2017-01-07T09:50:53.560Z,99.99
2017-01-07T09:51:54.040Z,99.99
2017-01-07T09:52:54.128Z,99.99
2017-01-07T09:53:53.795Z,99.99
2017-01-07T09:54:53.749Z,99.99
2017-01-07T09:55:53.406Z,99.99
2017-01-07T09:56:54.009Z,99.99
2017-01-07T09:57:53.657Z,99.99
2017-01-07T09:58:54.041Z,99.99
2017-01-07T09:59:53.933Z,99.99
2017-01-07T10:00:53.906Z,99.99
2017-01-07T10:01:53.753Z,99.99
2017-01-07T10:02:53.133Z,99.99
2017-01-07T10:03:53.178Z,99.99
2017-01-07T10:04:53.646Z,99.99
2017-01-07T10:05:53.094Z,99.99
2017-01-07T10:06:53.396Z,99.99
2017-01-07T10:07:53.703Z,99.99
2017-01-07T10:08:53.654Z,99.99
2017-01-07T10:09:52.988Z,99.99
2017-01-07T10:10:52.948Z,99.99
2017-01-07T10:11:52.925Z,99.99
2017-01-07T10:12:53.559Z,99.99
2017-01-07T10:13:53.519Z,99.99
2017-01-07T10:14:53.473Z,99.99
2017-01-07T10:15:53.125Z,99.99
2017-01-07T10:16:53.434Z,99.99
2017-01-07T10:17:52.661Z,99.99
2017-01-07T10:18:53.236Z,99.99
2017-01-07T10:19:53.006Z,99.99
2017-01-07T10:20:53.301Z,99.99
2017-01-07T10:21:53.296Z,99.99
2017-01-07T10:22:52.599Z,99.99
2017-01-07T10:23:52.484Z,99.99
2017-01-07T10:24:52.528Z,99.99
2017-01-07T10:25:52.823Z,99.99
2017-01-07T10:26:52.488Z,99.99
2017-01-07T10:27:52.769Z,99.99
2017-01-07T10:28:52.410Z,99.99
2017-01-07T10:29:53.040Z,99.99
2017-01-07T10:30:52.266Z,99.99
2017-01-07T10:31:52.649Z,99.99
2017-01-07T10:32:52.304Z,99.99
2017-01-07T10:33:52.914Z,99.99
2017-01-07T10:34:52.897Z,99.99
2017-01-07T10:35:52.117Z,99.99
2017-01-07T10:36:52.170Z,99.99
2017-01-07T10:37:52.481Z,99.99
2017-01-07T10:38:52.763Z,99.99
2017-01-07T10:39:52.093Z,99.99
2017-01-07T10:40:52.724Z,99.99
2017-01-07T10:41:52.347Z,99.99
2017-01-07T10:42:52.653Z,99.99
2017-01-07T10:43:51.997Z,99.99
2017-01-07T10:44:52.597Z,99.99
2017-01-07T10:45:52.015Z,99.99
2017-01-07T10:46:52.197Z,99.99
2017-01-07T10:47:52.526Z,99.99
2017-01-07T10:48:52.341Z,99.99
2017-01-07T10:49:52.114Z,99.99
2017-01-07T10:50:52.088Z,99.99
2017-01-07T10:51:51.739Z,99.99
2017-01-07T10:52:52.361Z,99.99
2017-01-07T10:53:51.679Z,99.99
2017-01-07T10:54:51.971Z,99.99
2017-01-07T10:55:52.283Z,99.99
2017-01-07T10:56:51.918Z,99.99
2017-01-07T10:57:52.214Z,99.99
2017-01-07T10:58:51.846Z,99.99
2017-01-07T10:59:51.426Z,99.99
2017-01-07T11:00:52.175Z,99.99
2017-01-07T11:01:51.446Z,99.99
2017-01-07T11:02:51.911Z,99.99
2017-01-07T11:03:51.724Z,99.99
2017-01-07T11:04:51.284Z,99.99
2017-01-07T11:05:51.652Z,99.99
2017-01-07T11:06:51.301Z,99.99
2017-01-07T11:07:51.269Z,99.99
2017-01-07T11:08:51.242Z,99.99
2017-01-07T11:09:51.530Z,99.99
2017-01-07T11:10:51.901Z,99.99
2017-01-07T11:11:51.073Z,99.99
2017-01-07T11:12:51.130Z,99.99
2017-01-07T11:13:51.470Z,99.99
2017-01-07T11:14:51.730Z,99.99
2017-01-07T11:15:51.688Z,99.99
2017-01-07T11:16:51.323Z,99.99
2017-01-07T11:17:51.624Z,99.99
2017-01-07T11:18:51.290Z,99.99
2017-01-07T11:19:50.837Z,99.99
2017-01-07T11:20:51.215Z,99.99
2017-01-07T11:21:51.196Z,99.99
2017-01-07T11:22:51.496Z,99.99
2017-01-07T11:23:50.795Z,99.99
2017-01-07T11:24:51.454Z,99.99
2017-01-07T11:25:51.294Z,99.99
2017-01-07T11:26:50.645Z,99.99
2017-01-07T11:27:50.600Z,99.99
2017-01-07T11:28:51.324Z,99.99
2017-01-07T11:29:50.966Z,99.99
2017-01-07T11:30:51.266Z,99.99
2017-01-07T11:31:50.483Z,99.99
2017-01-07T11:32:51.191Z,99.99
2017-01-07T11:33:51.023Z,99.99
2017-01-07T11:34:51.149Z,99.99
2017-01-07T11:35:50.791Z,99.99
2017-01-07T11:36:51.079Z,99.99
2017-01-07T11:37:51.054Z,99.99
2017-01-07T11:38:51.052Z,99.99
2017-01-07T11:39:50.665Z,99.99
2017-01-07T11:40:50.216Z,99.99
2017-01-07T11:41:50.802Z,99.99
2017-01-07T11:42:50.577Z,99.99
2017-01-07T11:43:50.237Z,99.99
2017-01-07T11:44:50.512Z,99.99
2017-01-07T11:45:50.816Z,99.99
2017-01-07T11:46:50.058Z,99.99
2017-01-07T11:47:50.105Z,99.99
2017-01-07T11:48:50.392Z,99.99
2017-01-07T11:49:50.048Z,99.99
2017-01-07T11:50:49.937Z,99.99
2017-01-07T11:51:50.006Z,99.99
2017-01-07T11:52:49.953Z,99.99
2017-01-07T11:53:50.302Z,99.99
2017-01-07T11:54:50.541Z,99.99
2017-01-07T11:55:49.880Z,99.99
2017-01-07T11:56:50.158Z,99.99
2017-01-07T11:57:50.494Z,99.99
2017-01-07T11:58:50.428Z,99.99
2017-01-07T11:59:50.430Z,99.99
2017-01-07T12:00:50.249Z,99.99
2017-01-07T12:01:50.345Z,99.99
2017-01-07T12:02:50.047Z,99.99
2017-01-07T12:03:49.570Z,99.99
2017-01-07T12:04:50.264Z,99.99
2017-01-07T12:05:49.592Z,99.99
2017-01-07T12:06:50.207Z,99.99
2017-01-07T12:07:49.526Z,99.99
2017-01-07T12:08:49.505Z,99.99
2017-01-07T12:09:50.119Z,99.99
2017-01-07T12:10:49.767Z,99.99
2017-01-07T12:11:49.725Z,99.99
2017-01-07T12:12:49.391Z,99.99
2017-01-07T12:13:49.882Z,99.99
2017-01-07T12:14:49.979Z,99.99
2017-01-07T12:15:49.933Z,99.99
2017-01-07T12:16:49.935Z,99.99
2017-01-07T12:17:49.751Z,99.99
2017-01-07T12:18:49.872Z,99.99
2017-01-07T12:19:49.178Z,99.99
2017-01-07T12:20:49.461Z,99.99
2017-01-07T12:21:49.127Z,99.99
2017-01-07T12:22:49.078Z,99.99
2017-01-07T12:23:49.069Z,99.99
2017-01-07T12:24:49.048Z,99.99
2017-01-07T12:25:49.324Z,99.99
2017-01-07T12:26:49.299Z,99.99
2017-01-07T12:27:49.604Z,99.99
2017-01-07T12:28:48.916Z,99.99
2017-01-07T12:29:49.541Z,99.99
2017-01-07T12:30:49.186Z,99.99
2017-01-07T12:31:49.497Z,99.99
2017-01-07T12:32:49.496Z,99.99
2017-01-07T12:33:49.090Z,99.99
2017-01-07T12:34:48.665Z,99.99
2017-01-07T12:35:49.358Z,99.99
2017-01-07T12:36:49.343Z,99.99
2017-01-07T12:37:49.333Z,99.99
2017-01-07T12:38:49.285Z,99.99
2017-01-07T12:39:49.259Z,99.99
2017-01-07T12:40:49.219Z,99.99
2017-01-07T12:41:48.454Z,99.99
2017-01-07T12:42:49.151Z,99.99
2017-01-07T12:43:48.429Z,99.99
2017-01-07T12:44:49.113Z,99.99
2017-01-07T12:45:48.336Z,99.99
2017-01-07T12:46:48.418Z,99.99
2017-01-07T12:47:48.367Z,99.99
2017-01-07T12:48:48.994Z,99.99
2017-01-07T12:49:48.957Z,99.99
2017-01-07T12:50:48.941Z,99.99
2017-01-07T12:51:48.177Z,99.99
2017-01-07T12:52:48.271Z,99.99